Etusivu
METAR-TAF:

METAR-TAF

Lentoasemat :

Arnhem, Alankomaat

Leveyspiiri: 52-04N, Pituuspiiri: 005-53E, korkeus merenpinnasta: 48 m

Tämänhetkinen sää

Tämä raportti tehtiin 33 minuuttia sitten, kello 19.25 UTC
Tuuli 10 kn pohjoisesta/koillisesta, vaihdellen luoteen ja idän/koillisen välillä
Lämpötila 15°C
Kosteus 48%
Ilmanpaine 1031 hPa
Näkyvyys 10 km tai enemmän
Pilvistä 10000 ft:n korkeudessa

METAR: EHDL 281925Z AUTO 02010KT 320V070 9999 OVC100 15/04 Q1031 BLU

Aika: 21:58 (19:58 UTC)


TAF: puuttuu

Säähavainnot ja -ennusteet yli 4000 lentoasemalta (METAR- ja TAF-raportit).

Käytössä olevat sääasemat on merkitty karttaan keltaisilla ja punaisilla pisteillä.

Aseta hiiri pisteen päälle nähdäksesi sääaseman nimen.

Klikkaa sitten nähdäksesi säähavainnot ja -ennusteet.

Kartan vaihtaminen: klikkaa mustalla rastilla varustettuja vihreitä pisteitä, niin voit zoomata sisään; viivalla varustettua vihreää pistettä, niin voit zoomata ulos tai vihreitä nuolia, niin pääset viereisille kartoille.


METAR-TAF: